sensor_id;sensor_type;location;lat;lon;timestamp;pressure;altitude;pressure_sealevel;temperature;humidity
45991;BME280;31721;41.740;-88.000;2023-01-28T00:00:22;98371.60;;;-0.07;57.95
45991;BME280;31721;41.740;-88.000;2023-01-28T00:02:51;98379.73;;;-0.03;57.61
45991;BME280;31721;41.740;-88.000;2023-01-28T00:05:20;98382.55;;;-0.17;57.17
45991;BME280;31721;41.740;-88.000;2023-01-28T00:07:48;98383.47;;;-0.35;57.70
45991;BME280;31721;41.740;-88.000;2023-01-28T00:10:17;98393.88;;;-0.41;57.55
45991;BME280;31721;41.740;-88.000;2023-01-28T00:12:46;98399.73;;;-0.54;57.72
45991;BME280;31721;41.740;-88.000;2023-01-28T00:15:14;98398.58;;;-0.35;56.43
45991;BME280;31721;41.740;-88.000;2023-01-28T00:17:42;98399.72;;;-0.48;56.72
45991;BME280;31721;41.740;-88.000;2023-01-28T00:20:11;98408.01;;;-0.45;56.50
45991;BME280;31721;41.740;-88.000;2023-01-28T00:22:39;98413.95;;;-0.83;57.33
45991;BME280;31721;41.740;-88.000;2023-01-28T00:25:07;98415.66;;;-1.00;57.53
45991;BME280;31721;41.740;-88.000;2023-01-28T00:27:36;98428.00;;;-0.91;56.86
45991;BME280;31721;41.740;-88.000;2023-01-28T00:30:05;98425.55;;;-0.56;56.13
45991;BME280;31721;41.740;-88.000;2023-01-28T00:32:33;98427.26;;;-0.88;56.74
45991;BME280;31721;41.740;-88.000;2023-01-28T00:35:01;98432.33;;;-0.86;56.93
45991;BME280;31721;41.740;-88.000;2023-01-28T00:37:30;98435.26;;;-0.75;56.21
45991;BME280;31721;41.740;-88.000;2023-01-28T00:39:57;98439.33;;;-1.24;56.98
45991;BME280;31721;41.740;-88.000;2023-01-28T00:42:26;98455.35;;;-0.92;56.31
45991;BME280;31721;41.740;-88.000;2023-01-28T00:44:54;98457.80;;;-1.11;55.86
45991;BME280;31721;41.740;-88.000;2023-01-28T00:47:21;98468.99;;;-1.41;56.35
45991;BME280;31721;41.740;-88.000;2023-01-28T00:49:49;98471.43;;;-1.06;55.58
45991;BME280;31721;41.740;-88.000;2023-01-28T00:52:17;98487.44;;;-1.04;55.40
45991;BME280;31721;41.740;-88.000;2023-01-28T00:54:45;98484.33;;;-1.18;54.89
45991;BME280;31721;41.740;-88.000;2023-01-28T00:57:13;98507.65;;;-1.17;55.12
45991;BME280;31721;41.740;-88.000;2023-01-28T00:59:41;98517.40;;;-1.44;55.61
45991;BME280;31721;41.740;-88.000;2023-01-28T01:02:09;98529.17;;;-1.60;55.50
45991;BME280;31721;41.740;-88.000;2023-01-28T01:04:38;98532.79;;;-1.46;55.15
45991;BME280;31721;41.740;-88.000;2023-01-28T01:07:07;98529.97;;;-1.60;55.54
45991;BME280;31721;41.740;-88.000;2023-01-28T01:09:34;98533.11;;;-1.52;55.02
45991;BME280;31721;41.740;-88.000;2023-01-28T01:12:02;98547.50;;;-1.55;55.35
45991;BME280;31721;41.740;-88.000;2023-01-28T01:14:30;98554.62;;;-1.50;55.78
45991;BME280;31721;41.740;-88.000;2023-01-28T01:16:59;98560.34;;;-1.38;55.30
45991;BME280;31721;41.740;-88.000;2023-01-28T01:19:27;98575.06;;;-1.45;55.58
45991;BME280;31721;41.740;-88.000;2023-01-28T01:21:56;98578.03;;;-1.35;55.29
45991;BME280;31721;41.740;-88.000;2023-01-28T01:24:24;98587.03;;;-1.48;55.26
45991;BME280;31721;41.740;-88.000;2023-01-28T01:26:52;98596.63;;;-1.58;55.72
45991;BME280;31721;41.740;-88.000;2023-01-28T01:29:20;98596.61;;;-1.65;56.04
45991;BME280;31721;41.740;-88.000;2023-01-28T01:31:49;98615.59;;;-2.00;56.59
45991;BME280;31721;41.740;-88.000;2023-01-28T01:34:17;98617.37;;;-1.95;56.54
45991;BME280;31721;41.740;-88.000;2023-01-28T01:36:46;98622.44;;;-1.76;56.23
45991;BME280;31721;41.740;-88.000;2023-01-28T01:39:14;98639.35;;;-2.00;56.88
45991;BME280;31721;41.740;-88.000;2023-01-28T01:41:42;98643.16;;;-1.81;56.94
45991;BME280;31721;41.740;-88.000;2023-01-28T01:44:54;98647.11;;;-1.71;56.89
45991;BME280;31721;41.740;-88.000;2023-01-28T01:47:24;98641.83;;;-1.44;56.13
45991;BME280;31721;41.740;-88.000;2023-01-28T01:49:55;98640.65;;;-1.67;56.96
45991;BME280;31721;41.740;-88.000;2023-01-28T01:52:29;98638.21;;;-1.71;56.69
45991;BME280;31721;41.740;-88.000;2023-01-28T01:55:03;98648.27;;;-1.96;56.55
45991;BME280;31721;41.740;-88.000;2023-01-28T01:57:35;98658.88;;;-1.68;56.88
45991;BME280;31721;41.740;-88.000;2023-01-28T02:00:06;98663.40;;;-1.75;56.78
45991;BME280;31721;41.740;-88.000;2023-01-28T02:02:37;98668.63;;;-1.52;55.32
45991;BME280;31721;41.740;-88.000;2023-01-28T02:05:07;98683.78;;;-2.08;55.70
45991;BME280;31721;41.740;-88.000;2023-01-28T02:07:36;98685.31;;;-1.95;55.24
45991;BME280;31721;41.740;-88.000;2023-01-28T02:10:07;98691.44;;;-2.55;54.55
45991;BME280;31721;41.740;-88.000;2023-01-28T02:12:38;98714.82;;;-2.04;54.46
45991;BME280;31721;41.740;-88.000;2023-01-28T02:15:11;98715.56;;;-2.86;54.59
45991;BME280;31721;41.740;-88.000;2023-01-28T02:17:41;98719.59;;;-2.41;54.82
45991;BME280;31721;41.740;-88.000;2023-01-28T02:20:12;98727.46;;;-2.25;54.68
45991;BME280;31721;41.740;-88.000;2023-01-28T02:23:25;98735.78;;;-2.24;54.62
45991;BME280;31721;41.740;-88.000;2023-01-28T02:26:48;98736.87;;;-2.17;54.31
45991;BME280;31721;41.740;-88.000;2023-01-28T02:29:25;98737.41;;;-2.56;54.57
45991;BME280;31721;41.740;-88.000;2023-01-28T02:31:59;98743.19;;;-2.15;53.93
45991;BME280;31721;41.740;-88.000;2023-01-28T02:34:36;98747.30;;;-2.40;53.91
45991;BME280;31721;41.740;-88.000;2023-01-28T02:37:11;98753.60;;;-2.58;54.29
45991;BME280;31721;41.740;-88.000;2023-01-28T02:39:47;98760.55;;;-2.66;54.39
45991;BME280;31721;41.740;-88.000;2023-01-28T02:42:18;98778.93;;;-3.03;54.81
45991;BME280;31721;41.740;-88.000;2023-01-28T02:44:48;98778.50;;;-2.91;54.39
45991;BME280;31721;41.740;-88.000;2023-01-28T02:47:16;98775.29;;;-2.75;54.45
45991;BME280;31721;41.740;-88.000;2023-01-28T02:49:48;98783.27;;;-2.87;54.63
45991;BME280;31721;41.740;-88.000;2023-01-28T02:52:31;98792.97;;;-3.17;54.83
45991;BME280;31721;41.740;-88.000;2023-01-28T02:55:08;98795.70;;;-2.92;54.47
45991;BME280;31721;41.740;-88.000;2023-01-28T02:57:42;98800.72;;;-3.13;54.49
45991;BME280;31721;41.740;-88.000;2023-01-28T03:00:16;98806.66;;;-3.20;54.45
45991;BME280;31721;41.740;-88.000;2023-01-28T03:02:49;98801.77;;;-3.35;54.38
45991;BME280;31721;41.740;-88.000;2023-01-28T03:05:24;98813.66;;;-3.48;54.52
45991;BME280;31721;41.740;-88.000;2023-01-28T03:07:53;98820.07;;;-3.61;54.58
45991;BME280;31721;41.740;-88.000;2023-01-28T03:10:24;98824.27;;;-3.70;54.32
45991;BME280;31721;41.740;-88.000;2023-01-28T03:12:56;98829.53;;;-3.72;54.30
45991;BME280;31721;41.740;-88.000;2023-01-28T03:15:25;98838.83;;;-3.90;54.51
45991;BME280;31721;41.740;-88.000;2023-01-28T03:18:00;98846.52;;;-3.88;54.10
45991;BME280;31721;41.740;-88.000;2023-01-28T03:20:37;98851.19;;;-4.01;54.49
45991;BME280;31721;41.740;-88.000;2023-01-28T03:23:09;98861.45;;;-4.23;52.78
45991;BME280;31721;41.740;-88.000;2023-01-28T03:25:40;98872.66;;;-4.21;54.33
45991;BME280;31721;41.740;-88.000;2023-01-28T03:28:15;98884.68;;;-4.13;53.67
45991;BME280;31721;41.740;-88.000;2023-01-28T03:30:51;98890.13;;;-4.05;53.57
45991;BME280;31721;41.740;-88.000;2023-01-28T03:33:25;98901.53;;;-3.85;53.21
45991;BME280;31721;41.740;-88.000;2023-01-28T03:35:53;98908.81;;;-3.72;52.66
45991;BME280;31721;41.740;-88.000;2023-01-28T03:38:22;98913.13;;;-3.95;52.62
45991;BME280;31721;41.740;-88.000;2023-01-28T03:40:51;98918.24;;;-3.94;52.34
45991;BME280;31721;41.740;-88.000;2023-01-28T03:43:19;98922.81;;;-4.05;51.88
45991;BME280;31721;41.740;-88.000;2023-01-28T03:45:47;98937.94;;;-3.93;52.16
45991;BME280;31721;41.740;-88.000;2023-01-28T03:48:15;98934.70;;;-4.13;51.65
45991;BME280;31721;41.740;-88.000;2023-01-28T03:50:43;98938.99;;;-4.09;51.92
45991;BME280;31721;41.740;-88.000;2023-01-28T03:53:10;98950.75;;;-4.73;52.41
45991;BME280;31721;41.740;-88.000;2023-01-28T03:55:38;98955.38;;;-4.57;52.69
45991;BME280;31721;41.740;-88.000;2023-01-28T03:58:07;98959.61;;;-4.49;52.98
45991;BME280;31721;41.740;-88.000;2023-01-28T04:00:35;98959.74;;;-4.41;52.62
45991;BME280;31721;41.740;-88.000;2023-01-28T04:03:04;98963.42;;;-4.87;52.78
45991;BME280;31721;41.740;-88.000;2023-01-28T04:05:32;98969.04;;;-5.13;53.18
45991;BME280;31721;41.740;-88.000;2023-01-28T04:07:59;98966.37;;;-4.67;53.34
45991;BME280;31721;41.740;-88.000;2023-01-28T04:10:28;98976.51;;;-4.56;53.22
45991;BME280;31721;41.740;-88.000;2023-01-28T04:12:55;98969.31;;;-4.60;53.42
45991;BME280;31721;41.740;-88.000;2023-01-28T04:15:23;98982.97;;;-4.96;53.35
45991;BME280;31721;41.740;-88.000;2023-01-28T04:17:51;98978.85;;;-4.63;53.04
45991;BME280;31721;41.740;-88.000;2023-01-28T04:20:18;98985.37;;;-4.55;53.58
45991;BME280;31721;41.740;-88.000;2023-01-28T04:22:46;99000.92;;;-4.28;52.94
45991;BME280;31721;41.740;-88.000;2023-01-28T04:25:13;99012.79;;;-4.34;52.90
45991;BME280;31721;41.740;-88.000;2023-01-28T04:27:41;99023.09;;;-4.60;53.09
45991;BME280;31721;41.740;-88.000;2023-01-28T04:30:09;99025.40;;;-4.47;53.21
45991;BME280;31721;41.740;-88.000;2023-01-28T04:32:37;99042.90;;;-4.24;52.75
45991;BME280;31721;41.740;-88.000;2023-01-28T04:35:06;99047.00;;;-4.69;52.96
45991;BME280;31721;41.740;-88.000;2023-01-28T04:37:34;99043.26;;;-4.39;52.99
45991;BME280;31721;41.740;-88.000;2023-01-28T04:40:02;99052.01;;;-4.53;52.94
45991;BME280;31721;41.740;-88.000;2023-01-28T04:42:29;99049.21;;;-4.52;53.04
45991;BME280;31721;41.740;-88.000;2023-01-28T04:44:57;99050.25;;;-4.46;53.02
45991;BME280;31721;41.740;-88.000;2023-01-28T04:47:25;99048.72;;;-4.59;53.30
45991;BME280;31721;41.740;-88.000;2023-01-28T04:49:53;99045.18;;;-4.67;53.25
45991;BME280;31721;41.740;-88.000;2023-01-28T04:52:21;99046.74;;;-4.63;53.32
45991;BME280;31721;41.740;-88.000;2023-01-28T04:54:49;99049.67;;;-5.16;53.86
45991;BME280;31721;41.740;-88.000;2023-01-28T04:57:17;99049.36;;;-4.66;53.76
45991;BME280;31721;41.740;-88.000;2023-01-28T04:59:44;99050.76;;;-5.12;54.28
45991;BME280;31721;41.740;-88.000;2023-01-28T05:02:12;99053.35;;;-4.98;54.13
45991;BME280;31721;41.740;-88.000;2023-01-28T05:04:40;99062.59;;;-5.06;53.91
45991;BME280;31721;41.740;-88.000;2023-01-28T05:07:08;99056.69;;;-4.84;54.36
45991;BME280;31721;41.740;-88.000;2023-01-28T05:09:36;99061.14;;;-4.49;54.02
45991;BME280;31721;41.740;-88.000;2023-01-28T05:12:04;99065.39;;;-4.68;53.86
45991;BME280;31721;41.740;-88.000;2023-01-28T05:14:32;99064.72;;;-4.71;53.72
45991;BME280;31721;41.740;-88.000;2023-01-28T05:17:00;99080.75;;;-4.76;53.87
45991;BME280;31721;41.740;-88.000;2023-01-28T05:19:28;99094.42;;;-5.07;53.62
45991;BME280;31721;41.740;-88.000;2023-01-28T05:21:56;99096.18;;;-5.03;54.25
45991;BME280;31721;41.740;-88.000;2023-01-28T05:24:23;99089.61;;;-5.02;54.18
45991;BME280;31721;41.740;-88.000;2023-01-28T05:26:51;99085.28;;;-5.11;54.35
45991;BME280;31721;41.740;-88.000;2023-01-28T05:29:19;99091.33;;;-5.19;54.32
45991;BME280;31721;41.740;-88.000;2023-01-28T05:31:47;99096.12;;;-5.24;54.29
45991;BME280;31721;41.740;-88.000;2023-01-28T05:34:15;99091.01;;;-5.16;54.07
45991;BME280;31721;41.740;-88.000;2023-01-28T05:36:42;99096.86;;;-5.30;54.52
45991;BME280;31721;41.740;-88.000;2023-01-28T05:39:10;99104.62;;;-4.85;53.91
45991;BME280;31721;41.740;-88.000;2023-01-28T05:41:38;99104.77;;;-5.01;53.93
45991;BME280;31721;41.740;-88.000;2023-01-28T05:44:05;99107.76;;;-4.97;54.01
45991;BME280;31721;41.740;-88.000;2023-01-28T05:46:33;99104.52;;;-4.99;54.37
45991;BME280;31721;41.740;-88.000;2023-01-28T05:49:01;99103.11;;;-5.24;53.63
45991;BME280;31721;41.740;-88.000;2023-01-28T05:51:29;99101.19;;;-5.66;54.08
45991;BME280;31721;41.740;-88.000;2023-01-28T05:53:57;99108.14;;;-5.00;54.19
45991;BME280;31721;41.740;-88.000;2023-01-28T05:56:25;99121.20;;;-5.03;53.60
45991;BME280;31721;41.740;-88.000;2023-01-28T05:58:53;99130.87;;;-4.94;53.67
45991;BME280;31721;41.740;-88.000;2023-01-28T06:01:20;99139.61;;;-4.97;53.75
45991;BME280;31721;41.740;-88.000;2023-01-28T06:03:48;99141.60;;;-5.15;53.49
45991;BME280;31721;41.740;-88.000;2023-01-28T06:06:16;99143.81;;;-5.03;53.88
45991;BME280;31721;41.740;-88.000;2023-01-28T06:08:44;99149.64;;;-5.00;53.50
45991;BME280;31721;41.740;-88.000;2023-01-28T06:11:11;99147.78;;;-5.07;53.56
45991;BME280;31721;41.740;-88.000;2023-01-28T06:13:39;99149.64;;;-4.84;53.39
45991;BME280;31721;41.740;-88.000;2023-01-28T06:16:07;99149.27;;;-5.28;53.50
45991;BME280;31721;41.740;-88.000;2023-01-28T06:18:35;99152.01;;;-4.79;52.97
45991;BME280;31721;41.740;-88.000;2023-01-28T06:21:03;99165.12;;;-4.63;52.52
45991;BME280;31721;41.740;-88.000;2023-01-28T06:23:31;99175.01;;;-4.85;52.39
45991;BME280;31721;41.740;-88.000;2023-01-28T06:25:59;99171.28;;;-4.81;52.41
45991;BME280;31721;41.740;-88.000;2023-01-28T06:28:26;99169.11;;;-4.97;52.70
45991;BME280;31721;41.740;-88.000;2023-01-28T06:30:54;99172.22;;;-4.88;52.52
45991;BME280;31721;41.740;-88.000;2023-01-28T06:33:23;99175.44;;;-5.11;52.58
45991;BME280;31721;41.740;-88.000;2023-01-28T06:35:50;99173.57;;;-4.92;52.31
45991;BME280;31721;41.740;-88.000;2023-01-28T06:38:18;99173.64;;;-4.86;52.51
45991;BME280;31721;41.740;-88.000;2023-01-28T06:40:50;99178.17;;;-5.09;52.15
45991;BME280;31721;41.740;-88.000;2023-01-28T06:43:18;99197.64;;;-4.61;51.52
45991;BME280;31721;41.740;-88.000;2023-01-28T06:45:46;99193.42;;;-4.74;51.51
45991;BME280;31721;41.740;-88.000;2023-01-28T06:48:14;99186.10;;;-5.18;51.78
45991;BME280;31721;41.740;-88.000;2023-01-28T06:50:41;99184.12;;;-5.23;51.60
45991;BME280;31721;41.740;-88.000;2023-01-28T06:53:09;99190.39;;;-5.29;51.87
45991;BME280;31721;41.740;-88.000;2023-01-28T06:55:37;99194.07;;;-5.22;52.15
45991;BME280;31721;41.740;-88.000;2023-01-28T06:58:05;99199.06;;;-5.00;51.66
45991;BME280;31721;41.740;-88.000;2023-01-28T07:00:32;99202.46;;;-5.21;52.08
45991;BME280;31721;41.740;-88.000;2023-01-28T07:03:00;99202.96;;;-5.22;52.05
45991;BME280;31721;41.740;-88.000;2023-01-28T07:05:28;99205.12;;;-5.28;52.23
45991;BME280;31721;41.740;-88.000;2023-01-28T07:07:56;99190.91;;;-5.56;52.23
45991;BME280;31721;41.740;-88.000;2023-01-28T07:10:24;99194.48;;;-5.50;52.53
45991;BME280;31721;41.740;-88.000;2023-01-28T07:12:52;99195.95;;;-5.73;52.35
45991;BME280;31721;41.740;-88.000;2023-01-28T07:15:20;99190.62;;;-6.41;51.92
45991;BME280;31721;41.740;-88.000;2023-01-28T07:17:48;99196.51;;;-6.21;52.92
45991;BME280;31721;41.740;-88.000;2023-01-28T07:20:16;99204.51;;;-6.53;53.05
45991;BME280;31721;41.740;-88.000;2023-01-28T07:22:45;99212.44;;;-5.87;53.18
45991;BME280;31721;41.740;-88.000;2023-01-28T07:25:14;99221.11;;;-5.51;52.81
45991;BME280;31721;41.740;-88.000;2023-01-28T07:27:47;99225.12;;;-5.64;52.57
45991;BME280;31721;41.740;-88.000;2023-01-28T07:30:16;99238.42;;;-5.20;52.19
45991;BME280;31721;41.740;-88.000;2023-01-28T07:32:45;99240.19;;;-5.23;52.10
45991;BME280;31721;41.740;-88.000;2023-01-28T07:35:13;99241.02;;;-5.51;52.19
45991;BME280;31721;41.740;-88.000;2023-01-28T07:37:40;99241.78;;;-5.46;52.25
45991;BME280;31721;41.740;-88.000;2023-01-28T07:40:10;99248.67;;;-5.65;52.50
45991;BME280;31721;41.740;-88.000;2023-01-28T07:42:38;99251.40;;;-5.59;52.49
45991;BME280;31721;41.740;-88.000;2023-01-28T07:45:07;99252.62;;;-5.53;52.62
45991;BME280;31721;41.740;-88.000;2023-01-28T07:47:34;99254.95;;;-5.85;52.57
45991;BME280;31721;41.740;-88.000;2023-01-28T07:50:02;99259.77;;;-5.53;52.68
45991;BME280;31721;41.740;-88.000;2023-01-28T07:52:30;99261.47;;;-5.52;52.59
45991;BME280;31721;41.740;-88.000;2023-01-28T07:54:58;99263.10;;;-5.49;52.63
45991;BME280;31721;41.740;-88.000;2023-01-28T07:57:26;99266.47;;;-5.48;52.88
45991;BME280;31721;41.740;-88.000;2023-01-28T07:59:54;99269.02;;;-5.41;52.91
45991;BME280;31721;41.740;-88.000;2023-01-28T08:02:21;99269.17;;;-5.52;52.76
45991;BME280;31721;41.740;-88.000;2023-01-28T08:04:49;99270.05;;;-5.39;52.96
45991;BME280;31721;41.740;-88.000;2023-01-28T08:07:17;99270.03;;;-5.30;52.89
45991;BME280;31721;41.740;-88.000;2023-01-28T08:09:44;99272.89;;;-5.25;52.92
45991;BME280;31721;41.740;-88.000;2023-01-28T08:12:12;99275.87;;;-5.27;52.02
45991;BME280;31721;41.740;-88.000;2023-01-28T08:14:40;99279.01;;;-5.34;52.72
45991;BME280;31721;41.740;-88.000;2023-01-28T08:17:07;99283.19;;;-5.35;52.60
45991;BME280;31721;41.740;-88.000;2023-01-28T08:19:35;99281.21;;;-5.60;52.60
45991;BME280;31721;41.740;-88.000;2023-01-28T08:22:03;99285.79;;;-5.49;52.79
45991;BME280;31721;41.740;-88.000;2023-01-28T08:24:31;99294.66;;;-5.40;52.15
45991;BME280;31721;41.740;-88.000;2023-01-28T08:26:59;99299.93;;;-5.40;52.77
45991;BME280;31721;41.740;-88.000;2023-01-28T08:29:26;99309.11;;;-5.23;52.91
45991;BME280;31721;41.740;-88.000;2023-01-28T08:31:54;99316.66;;;-5.20;52.77
45991;BME280;31721;41.740;-88.000;2023-01-28T08:34:22;99321.25;;;-5.22;52.69
45991;BME280;31721;41.740;-88.000;2023-01-28T08:36:50;99319.27;;;-5.11;52.72
45991;BME280;31721;41.740;-88.000;2023-01-28T08:39:18;99327.75;;;-5.03;52.67
45991;BME280;31721;41.740;-88.000;2023-01-28T08:41:46;99334.77;;;-4.95;52.39
45991;BME280;31721;41.740;-88.000;2023-01-28T08:44:13;99338.91;;;-4.92;52.29
45991;BME280;31721;41.740;-88.000;2023-01-28T08:46:42;99340.66;;;-4.97;52.27
45991;BME280;31721;41.740;-88.000;2023-01-28T08:49:10;99340.10;;;-4.96;52.21
45991;BME280;31721;41.740;-88.000;2023-01-28T08:51:38;99337.34;;;-4.85;52.12
45991;BME280;31721;41.740;-88.000;2023-01-28T08:54:05;99338.76;;;-4.97;52.14
45991;BME280;31721;41.740;-88.000;2023-01-28T08:56:33;99349.42;;;-4.88;52.26
45991;BME280;31721;41.740;-88.000;2023-01-28T08:59:01;99361.61;;;-4.91;52.12
45991;BME280;31721;41.740;-88.000;2023-01-28T09:01:29;99362.49;;;-4.72;51.98
45991;BME280;31721;41.740;-88.000;2023-01-28T09:03:57;99371.97;;;-4.59;51.48
45991;BME280;31721;41.740;-88.000;2023-01-28T09:06:24;99382.19;;;-4.34;50.74
45991;BME280;31721;41.740;-88.000;2023-01-28T09:08:55;99385.67;;;-4.41;50.61
45991;BME280;31721;41.740;-88.000;2023-01-28T09:11:23;99382.59;;;-4.51;50.41
45991;BME280;31721;41.740;-88.000;2023-01-28T09:13:51;99377.49;;;-4.55;50.34
45991;BME280;31721;41.740;-88.000;2023-01-28T09:16:19;99376.65;;;-4.68;50.56
45991;BME280;31721;41.740;-88.000;2023-01-28T09:18:46;99377.11;;;-4.77;50.58
45991;BME280;31721;41.740;-88.000;2023-01-28T09:21:14;99376.95;;;-4.84;50.66
45991;BME280;31721;41.740;-88.000;2023-01-28T09:23:42;99375.36;;;-4.83;50.86
45991;BME280;31721;41.740;-88.000;2023-01-28T09:26:10;99367.67;;;-4.85;50.90
45991;BME280;31721;41.740;-88.000;2023-01-28T09:28:38;99365.70;;;-4.83;51.08
45991;BME280;31721;41.740;-88.000;2023-01-28T09:31:07;99359.61;;;-4.78;51.24
45991;BME280;31721;41.740;-88.000;2023-01-28T09:33:36;99352.50;;;-4.92;51.36
45991;BME280;31721;41.740;-88.000;2023-01-28T09:36:07;99347.51;;;-4.86;51.28
45991;BME280;31721;41.740;-88.000;2023-01-28T09:38:37;99344.15;;;-4.97;51.34
45991;BME280;31721;41.740;-88.000;2023-01-28T09:41:20;99336.48;;;-4.89;51.51
45991;BME280;31721;41.740;-88.000;2023-01-28T09:44:02;99335.29;;;-4.89;51.65
45991;BME280;31721;41.740;-88.000;2023-01-28T09:46:33;99338.00;;;-4.93;51.53
45991;BME280;31721;41.740;-88.000;2023-01-28T09:49:08;99339.63;;;-4.94;51.52
45991;BME280;31721;41.740;-88.000;2023-01-28T09:51:41;99331.28;;;-4.86;51.48
45991;BME280;31721;41.740;-88.000;2023-01-28T09:54:18;99330.12;;;-4.83;51.50
45991;BME280;31721;41.740;-88.000;2023-01-28T09:56:55;99330.27;;;-4.91;51.53
45991;BME280;31721;41.740;-88.000;2023-01-28T09:59:24;99333.02;;;-4.95;51.47
45991;BME280;31721;41.740;-88.000;2023-01-28T10:01:56;99333.64;;;-4.98;51.43
45991;BME280;31721;41.740;-88.000;2023-01-28T10:04:32;99345.42;;;-5.01;51.84
45991;BME280;31721;41.740;-88.000;2023-01-28T10:07:16;99348.85;;;-4.95;51.55
45991;BME280;31721;41.740;-88.000;2023-01-28T10:09:49;99357.02;;;-5.06;51.29
45991;BME280;31721;41.740;-88.000;2023-01-28T10:12:30;99364.64;;;-5.01;51.33
45991;BME280;31721;41.740;-88.000;2023-01-28T10:15:19;99361.82;;;-4.99;51.28
45991;BME280;31721;41.740;-88.000;2023-01-28T10:17:50;99370.83;;;-5.05;51.25
45991;BME280;31721;41.740;-88.000;2023-01-28T10:20:23;99378.60;;;-4.90;51.38
45991;BME280;31721;41.740;-88.000;2023-01-28T10:22:55;99384.51;;;-4.90;51.43
45991;BME280;31721;41.740;-88.000;2023-01-28T10:25:28;99388.24;;;-4.86;51.36
45991;BME280;31721;41.740;-88.000;2023-01-28T10:27:57;99396.18;;;-4.85;51.25
45991;BME280;31721;41.740;-88.000;2023-01-28T10:30:28;99406.21;;;-4.80;51.24
45991;BME280;31721;41.740;-88.000;2023-01-28T10:33:02;99413.26;;;-4.80;51.05
45991;BME280;31721;41.740;-88.000;2023-01-28T10:35:34;99417.81;;;-4.79;51.09
45991;BME280;31721;41.740;-88.000;2023-01-28T10:38:06;99425.39;;;-4.63;50.96
45991;BME280;31721;41.740;-88.000;2023-01-28T10:40:35;99437.36;;;-4.62;50.86
45991;BME280;31721;41.740;-88.000;2023-01-28T10:43:03;99440.20;;;-4.64;50.82
45991;BME280;31721;41.740;-88.000;2023-01-28T10:45:35;99447.37;;;-4.58;50.58
45991;BME280;31721;41.740;-88.000;2023-01-28T10:48:10;99444.04;;;-4.62;50.48
45991;BME280;31721;41.740;-88.000;2023-01-28T10:50:49;99434.87;;;-4.69;50.51
45991;BME280;31721;41.740;-88.000;2023-01-28T10:53:17;99428.13;;;-4.67;50.60
45991;BME280;31721;41.740;-88.000;2023-01-28T10:55:49;99428.32;;;-4.70;50.41
45991;BME280;31721;41.740;-88.000;2023-01-28T10:58:21;99437.39;;;-4.88;50.41
45991;BME280;31721;41.740;-88.000;2023-01-28T11:00:52;99441.76;;;-5.19;50.56
45991;BME280;31721;41.740;-88.000;2023-01-28T11:03:22;99444.50;;;-5.20;50.75
45991;BME280;31721;41.740;-88.000;2023-01-28T11:05:52;99445.01;;;-5.13;51.03
45991;BME280;31721;41.740;-88.000;2023-01-28T11:08:22;99445.09;;;-5.12;50.88
45991;BME280;31721;41.740;-88.000;2023-01-28T11:10:51;99441.54;;;-5.06;50.92
45991;BME280;31721;41.740;-88.000;2023-01-28T11:13:21;99437.27;;;-5.07;50.77
45991;BME280;31721;41.740;-88.000;2023-01-28T11:15:52;99442.69;;;-5.27;50.56
45991;BME280;31721;41.740;-88.000;2023-01-28T11:18:22;99443.72;;;-5.24;50.68
45991;BME280;31721;41.740;-88.000;2023-01-28T11:20:53;99439.29;;;-5.21;50.90
45991;BME280;31721;41.740;-88.000;2023-01-28T11:23:24;99443.08;;;-5.24;51.08
45991;BME280;31721;41.740;-88.000;2023-01-28T11:26:03;99443.57;;;-5.15;50.80
45991;BME280;31721;41.740;-88.000;2023-01-28T11:28:32;99445.32;;;-5.30;50.66
45991;BME280;31721;41.740;-88.000;2023-01-28T11:31:02;99448.26;;;-5.24;50.74
45991;BME280;31721;41.740;-88.000;2023-01-28T11:33:37;99451.13;;;-5.21;50.76
45991;BME280;31721;41.740;-88.000;2023-01-28T11:36:12;99450.76;;;-5.19;50.78
45991;BME280;31721;41.740;-88.000;2023-01-28T11:38:49;99454.54;;;-5.11;50.55
45991;BME280;31721;41.740;-88.000;2023-01-28T11:41:18;99459.16;;;-5.06;50.55
45991;BME280;31721;41.740;-88.000;2023-01-28T11:43:50;99463.26;;;-5.04;50.45
45991;BME280;31721;41.740;-88.000;2023-01-28T11:46:38;99472.19;;;-4.99;50.40
45991;BME280;31721;41.740;-88.000;2023-01-28T11:49:12;99474.56;;;-5.05;50.29
45991;BME280;31721;41.740;-88.000;2023-01-28T11:51:50;99476.79;;;-5.00;50.19
45991;BME280;31721;41.740;-88.000;2023-01-28T11:54:29;99477.61;;;-4.98;50.16
45991;BME280;31721;41.740;-88.000;2023-01-28T11:57:08;99473.46;;;-4.88;49.99
45991;BME280;31721;41.740;-88.000;2023-01-28T11:59:53;99474.35;;;-4.87;49.79
45991;BME280;31721;41.740;-88.000;2023-01-28T12:02:34;99474.59;;;-4.84;49.86
45991;BME280;31721;41.740;-88.000;2023-01-28T12:05:19;99472.65;;;-4.90;49.82
45991;BME280;31721;41.740;-88.000;2023-01-28T12:07:58;99460.83;;;-4.87;49.95
45991;BME280;31721;41.740;-88.000;2023-01-28T12:10:40;99459.21;;;-4.95;50.01
45991;BME280;31721;41.740;-88.000;2023-01-28T12:13:23;99468.35;;;-4.80;49.92
45991;BME280;31721;41.740;-88.000;2023-01-28T12:16:12;99474.85;;;-4.97;49.89
45991;BME280;31721;41.740;-88.000;2023-01-28T12:19:04;99469.19;;;-4.92;49.73
45991;BME280;31721;41.740;-88.000;2023-01-28T12:21:44;99467.54;;;-5.04;49.83
45991;BME280;31721;41.740;-88.000;2023-01-28T12:24:32;99471.04;;;-5.07;49.95
45991;BME280;31721;41.740;-88.000;2023-01-28T12:27:13;99470.29;;;-5.14;50.22
45991;BME280;31721;41.740;-88.000;2023-01-28T12:29:52;99466.00;;;-5.13;50.35
45991;BME280;31721;41.740;-88.000;2023-01-28T12:32:34;99464.99;;;-5.16;50.31
45991;BME280;31721;41.740;-88.000;2023-01-28T12:36:20;99464.50;;;-5.15;50.45
45991;BME280;31721;41.740;-88.000;2023-01-28T12:39:00;99470.63;;;-5.03;50.61
45991;BME280;31721;41.740;-88.000;2023-01-28T12:41:33;99471.69;;;-4.99;50.41
45991;BME280;31721;41.740;-88.000;2023-01-28T12:44:04;99476.93;;;-4.94;50.24
45991;BME280;31721;41.740;-88.000;2023-01-28T12:46:40;99480.65;;;-4.98;50.38
45991;BME280;31721;41.740;-88.000;2023-01-28T12:49:15;99491.08;;;-4.99;50.43
45991;BME280;31721;41.740;-88.000;2023-01-28T12:51:52;99494.26;;;-4.95;50.38
45991;BME280;31721;41.740;-88.000;2023-01-28T12:54:25;99490.35;;;-4.93;50.18
45991;BME280;31721;41.740;-88.000;2023-01-28T12:56:55;99495.31;;;-4.90;50.16
45991;BME280;31721;41.740;-88.000;2023-01-28T12:59:28;99502.17;;;-5.00;50.22